Main page
METAR-TAF:

METAR-TAF

Airports :

Jefferson County International Airport

Port Townsend, Washington, United States

latitude: 48-03-14N, longitude: 122-48-38W, elevation: 108 ft

Current weather observation

The report was made 14 minutes ago, at 10:55 UTC
Calm wind
Temperature 54°F
Humidity 100%
Pressure 29.92 in. Hg
Visibility: 10 miles
Overcast at a height of 4200 ft

METAR: K0S9 171055Z AUTO 00000KT 10SM OVC042 12/12 A2992 RMK AO2

Time: 04:09 (11:09 UTC)


TAF: missing

Weather observations and forecasts of more than 4000 airports (METAR and TAF reports).

The available stations are represented by yellow and red dots on the map.

Hover mouse over dot to see the name of the station.

Then click to see weather observations and forecasts.

To change the map : click on the green buttons with a black cross to zoom in, on the green button with a dash to zoom out, or on the green arrows for adjacent maps.


METAR-TAF: